Nearby METAR Reports

 

KDWH - Houston/Dw Hooks, Texas, USA
Distance from station: WNW 3mi, 6km
Updated: 04/20/2021 10:53am
Clear
Clear
 Wind from SW
Wind: SW 8 mph , 13 km/h
Temperature: 72°F , 22°C
Dew Point: 48°F , 9°C
Humidity: 44%
Barometer: 30.05 inHg , 1017.6 hPa
Clouds: Clear
Visibility: 10 miles , 16 km
2021/04/20 15:53 KDWH 201553Z 22007KT 10SM CLR 22/09 A3005 RMK AO2 SLP173 T02220094
KIAH - Houston/Intnl, Texas, USA
Distance from station: ESE 9mi, 14km
Updated: 04/20/2021 10:53am
Clear
Clear
 Wind from varies
Wind: varies 5 mph , 7 km/h
Temperature: 73°F , 23°C
Dew Point: 46°F , 8°C
Humidity: 38%
Barometer: 30.04 inHg , 1017.3 hPa
Clouds: Clear
Visibility: 10 miles , 16 km
2021/04/20 15:53 KIAH 201553Z VRB04KT 10SM CLR 23/08 A3004 RMK AO2 SLP173 T02280083
 
KCXO - Conroe, Texas, USA
Distance from station: NNE 21mi, 34km
Updated: 04/20/2021 9:53am
NOT Current
Clear
Clear
 Wind from WSW
Wind: WSW 9 mph , 15 km/h
Temperature: 70°F , 21°C
Dew Point: 50°F , 10°C
Humidity: 50%
Barometer: 30.05 inHg , 1017.6 hPa
Clouds: Clear
Visibility: 10 miles , 16 km
2021/04/20 14:53 KCXO 201453Z 25008KT 10SM CLR 21/10 A3005 RMK AO2 SLP175 T02060100 50007 $
KMCJ - Houston/Univ, Texas, USA
Distance from station: SSE 24mi, 39km
Updated: 04/20/2021 11:15am
Clear
Clear
 Wind from SSW
Wind: SSW 5 mph , 7 km/h
Temperature: 72°F , 22°C
Dew Point: 46°F , 8°C
Humidity: 41%
Barometer: 30.03 inHg , 1016.9 hPa
Clouds: Clear
Visibility: 10 miles , 16 km
2021/04/20 16:15 KMCJ 201615Z AUTO 20004KT 10SM CLR 22/08 A3003 RMK A01
 
KTME - Houston Exec, Texas, USA
Distance from station: SW 30mi, 48km
Updated: 04/20/2021 11:15am
Clear
Clear
 Wind from SW
Wind: SW 3 mph , 6 km/h
Temperature: 73°F , 23°C
Dew Point: 48°F , 9°C
Humidity: 41%
Barometer: 30.07 inHg , 1018.3 hPa
Clouds: Clear
Visibility: 10 miles , 16 km
2021/04/20 16:15 KTME 201615Z AUTO 23003KT 10SM CLR 23/09 A3007 RMK AO2
KHOU - Houston/Hobby, Texas, USA
Distance from station: SSE 32mi, 51km
Updated: 04/20/2021 10:53am
Clear
Clear
 Wind from varies
Wind: varies 3 mph , 6 km/h
Temperature: 72°F , 22°C
Dew Point: 45°F , 7°C
Humidity: 38%
Barometer: 30.04 inHg , 1017.3 hPa
Clouds: Clear
Visibility: 10 miles , 16 km
2021/04/20 15:53 KHOU 201553Z VRB03KT 10SM CLR 22/07 A3004 RMK AO2 SLP178 T02220072
 
KSGR - Houston/Sugar La, Texas, USA
Distance from station: SSW 32mi, 51km
Updated: 04/20/2021 10:53am
Clear
Clear
 Wind from calm
Wind: Calm
Temperature: 73°F , 23°C
Dew Point: 48°F , 9°C
Humidity: 41%
Barometer: 30.04 inHg , 1017.3 hPa
Clouds: Clear
Visibility: 10 miles , 16 km
2021/04/20 15:53 KSGR 201553Z 00000KT 10SM CLR 23/09 A3004 RMK AO2 SLP173 T02280094
K6R3 - Cleveland Muni, Texas, USA
Distance from station: NE 36mi, 58km
Updated: 04/20/2021 11:15am
Clear
Clear
 Wind from SW
Wind: SW 6 mph , 9 km/h
Temperature: 73°F , 23°C
Dew Point: 43°F , 6°C
Humidity: 33%
Barometer: 30.06 inHg , 1017.9 hPa
Clouds: Clear
Visibility: 10 miles , 16 km
2021/04/20 16:15 K6R3 201615Z AUTO 23005KT 10SM CLR 23/06 A3006 RMK AO2 T02260061
 
KAXH - Houston/Southwst, Texas, USA
Distance from station: S 37mi, 60km
Updated: 04/20/2021 11:15am
Clear
Clear
 Wind from calm
Wind: Calm
Temperature: 72°F , 22°C
Dew Point: 48°F , 9°C
Humidity: 44%
Barometer: 30.05 inHg , 1017.6 hPa
Clouds: Clear
Visibility: 10 miles , 16 km
2021/04/20 16:15 KAXH 201615Z AUTO 00000KT 10SM CLR 22/09 A3005 RMK AO2 T02220090
KEFD - Houston/Ellingto, Texas, USA
Distance from station: SSE 37mi, 60km
Updated: 04/20/2021 10:50am
Clear
Clear
 Wind from SSW
Wind: SSW 3 mph , 6 km/h
Temperature: 72°F , 22°C
Dew Point: 46°F , 8°C
Humidity: 41%
Barometer: 30.05 inHg , 1017.6 hPa
Clouds: Clear
Visibility: 10 miles , 16 km
2021/04/20 15:50 KEFD 201550Z 21003KT 10SM CLR 22/08 A3005
 
KLVJ - Houston, Texas, USA
Distance from station: SSE 40mi, 64km
Updated: 04/20/2021 10:53am
Clear
Clear
 Wind from NNW
Wind: NNW 5 mph , 7 km/h
Temperature: 73°F , 23°C
Dew Point: 48°F , 9°C
Humidity: 41%
Barometer: 30.06 inHg , 1017.9 hPa
Clouds: Clear
Visibility: 10 miles , 16 km
2021/04/20 15:53 KLVJ 201553Z AUTO 34004KT 10SM CLR 23/09 A3006 RMK AO2 SLP179 T02280089
KUTS - Huntsville, Texas, USA
Distance from station: N 48mi, 78km
Updated: 04/20/2021 10:53am
Clear
Clear
 Wind from W
Wind: W 8 mph , 13 km/h
Temperature: 72°F , 22°C
Dew Point: 52°F , 11°C
Humidity: 50%
Barometer: 30.05 inHg , 1017.6 hPa
Clouds: Clear
Visibility: 10 miles , 16 km
2021/04/20 15:53 KUTS 201553Z AUTO 27007KT 10SM CLR 22/11 A3005 RMK AO2 SLP172 T02220111